Time;durP1;ratioP1;P1;durP2;ratioP2;P2;SDS_P1;SDS_P2;PMS_P1;PMS_P2;Temp;Humidity;BMP_temperature;BMP_pressure;BME280_temperature;BME280_humidity;BME280_pressure;Samples;Min_cycle;Max_cycle;Signal;HPM_P1;HPM_P2
2022/10/16 00:01:39;;;;;;;;;;;;;;;14.47;100.00;100729.91;5008671;28;19945;-75
2022/10/16 00:04:05;;;;;;;;;;;;;;;14.46;100.00;100736.69;4992613;28;19926;-75
2022/10/16 00:06:32;;;;;;;;;;;;;;;14.49;100.00;100719.16;5003414;28;19926;-75
2022/10/16 00:08:58;;;;;;;;;;;;;;;14.46;100.00;100718.00;5006727;28;19933;-75
2022/10/16 00:11:29;;;;;;;;;;;;;;;14.45;100.00;100715.66;5006234;28;19937;-75
2022/10/16 00:13:58;;;;;;;;;;;;;;;14.40;100.00;100725.25;5008332;28;19932;-76
2022/10/16 00:16:26;;;;;;;;;;;;;;;14.34;100.00;100726.19;5009184;28;20309;-75
2022/10/16 00:18:52;;;;;;;;;;;;;;;14.31;100.00;100733.34;5009825;28;19933;-75
2022/10/16 00:21:21;;;;;;;;;;;;;;;14.31;100.00;100729.81;5002969;28;19929;-75
2022/10/16 00:23:50;;;;;;;;;;;;;;;14.26;100.00;100725.50;5009328;28;19941;-75
2022/10/16 00:26:17;;;;;;;;;;;;;;;14.23;100.00;100731.09;5007560;28;19952;-75
2022/10/16 00:28:50;;;;;;;;;;;;;;;14.19;100.00;100730.34;5008683;28;20341;-76
2022/10/16 00:31:18;;;;;;;;;;;;;;;14.18;100.00;100729.53;5006281;28;20105;-75
2022/10/16 00:33:44;;;;;;;;;;;;;;;14.17;100.00;100738.34;5008626;28;20473;-75
2022/10/16 00:36:12;;;;;;;;;;;;;;;14.10;100.00;100739.22;5005178;28;20348;-75
2022/10/16 00:38:39;;;;;;;;;;;;;;;14.07;100.00;100731.72;4991517;28;19926;-76
2022/10/16 00:41:07;;;;;;;;;;;;;;;14.03;100.00;100736.56;5008699;28;19933;-74
2022/10/16 00:43:36;;;;;;;;;;;;;;;13.99;100.00;100744.16;5004842;28;19932;-75
2022/10/16 00:46:03;;;;;;;;;;;;;;;13.98;100.00;100745.38;5008132;28;19933;-75
2022/10/16 00:48:30;;;;;;;;;;;;;;;13.96;100.00;100738.63;5004593;28;19937;-75
2022/10/16 00:50:57;;;;;;;;;;;;;;;13.91;100.00;100737.09;5004320;28;19929;-75
2022/10/16 00:53:25;;;;;;;;;;;;;;;13.89;100.00;100739.53;5008470;28;19937;-74
2022/10/16 00:55:51;;;;;;;;;;;;;;;13.84;100.00;100750.34;5009063;28;19925;-74
2022/10/16 00:58:18;;;;;;;;;;;;;;;13.84;100.00;100748.34;5008624;28;20412;-75
2022/10/16 01:00:44;;;;;;;;;;;;;;;13.84;100.00;100748.34;5007885;28;20000;-76
2022/10/16 01:03:28;;;;;;;;;;;;;;;13.84;100.00;100737.22;5008538;28;19930;-76
2022/10/16 01:06:02;;;;;;;;;;;;;;;13.85;100.00;100732.44;5007787;28;19929;-75
2022/10/16 01:08:38;;;;;;;;;;;;;;;13.85;100.00;100743.56;5004301;28;19925;-75
2022/10/16 01:11:13;;;;;;;;;;;;;;;13.83;100.00;100740.41;5000427;28;19929;-75
2022/10/16 01:13:42;;;;;;;;;;;;;;;13.80;100.00;100750.38;5008732;28;19929;-75
2022/10/16 01:16:38;;;;;;;;;;;;;;;13.80;100.00;100741.28;4999220;28;20390;-75
2022/10/16 01:19:17;;;;;;;;;;;;;;;13.79;100.00;100745.25;4984138;28;19937;-76
2022/10/16 01:21:46;;;;;;;;;;;;;;;13.78;100.00;100741.69;5006824;28;19933;-76
2022/10/16 01:24:15;;;;;;;;;;;;;;;13.77;100.00;100745.66;5005940;28;20465;-76
2022/10/16 01:26:42;;;;;;;;;;;;;;;13.71;100.00;100739.00;5009022;28;19933;-76
2022/10/16 01:29:16;;;;;;;;;;;;;;;13.71;100.00;100738.22;5008709;28;19972;-76
2022/10/16 01:31:46;;;;;;;;;;;;;;;13.70;100.00;100737.41;5002869;28;20019;-75
2022/10/16 01:34:20;;;;;;;;;;;;;;;13.68;100.00;100744.59;5006570;28;19936;-76
2022/10/16 01:36:53;;;;;;;;;;;;;;;13.63;100.00;100736.75;4990072;28;19930;-75
2022/10/16 01:39:22;;;;;;;;;;;;;;;13.61;100.00;100739.94;4992456;28;19926;-75
2022/10/16 01:41:52;;;;;;;;;;;;;;;13.58;100.00;100740.75;4992668;28;19938;-75
2022/10/16 01:44:44;;;;;;;;;;;;;;;13.55;100.00;100736.03;5006010;28;19929;-75
2022/10/16 01:47:12;;;;;;;;;;;;;;;13.53;100.00;100734.88;5005156;28;19937;-75
2022/10/16 01:49:40;;;;;;;;;;;;;;;13.50;100.00;100739.25;5007844;28;19925;-75
2022/10/16 01:52:12;;;;;;;;;;;;;;;13.46;100.00;100732.97;5006165;28;20390;-77
2022/10/16 01:54:40;;;;;;;;;;;;;;;13.42;100.00;100735.00;5007954;28;20338;-74
2022/10/16 01:57:07;;;;;;;;;;;;;;;13.40;100.00;100731.84;5007847;28;19925;-74
2022/10/16 01:59:36;;;;;;;;;;;;;;;13.40;100.00;100726.28;5007285;28;19952;-74
2022/10/16 02:02:06;;;;;;;;;;;;;;;13.36;100.00;100733.88;5008420;28;19933;-74
2022/10/16 02:04:38;;;;;;;;;;;;;;;13.37;100.00;100729.13;4990212;28;20385;-74
2022/10/16 02:07:05;;;;;;;;;;;;;;;13.35;100.00;100728.75;4990144;28;19929;-74
2022/10/16 02:09:35;;;;;;;;;;;;;;;13.40;100.00;100733.84;4990922;28;19930;-74
2022/10/16 02:12:06;;;;;;;;;;;;;;;13.48;100.00;100733.34;5007889;28;19930;-74
2022/10/16 02:14:32;;;;;;;;;;;;;;;13.54;100.00;100730.88;5005174;28;19933;-74
2022/10/16 02:16:59;;;;;;;;;;;;;;;13.58;100.00;100746.31;5009705;28;19938;-75
2022/10/16 02:19:25;;;;;;;;;;;;;;;13.58;100.00;100737.19;5011990;28;19948;-74
2022/10/16 02:21:56;;;;;;;;;;;;;;;13.55;100.00;100740.78;5011295;28;20020;-75
2022/10/16 02:24:23;;;;;;;;;;;;;;;13.54;100.00;100742.00;5010965;28;19933;-75
2022/10/16 02:26:57;;;;;;;;;;;;;;;13.78;100.00;100752.81;5008229;28;20492;-75
2022/10/16 02:29:26;;;;;;;;;;;;;;;13.88;100.00;100753.88;5010488;28;20021;-74
2022/10/16 02:31:55;;;;;;;;;;;;;;;14.00;100.00;100756.84;5008657;28;19929;-74
2022/10/16 02:34:23;;;;;;;;;;;;;;;14.05;100.00;100748.06;5011395;28;19929;-75
2022/10/16 02:36:50;;;;;;;;;;;;;;;14.08;100.00;100751.97;5011649;28;19929;-75
2022/10/16 02:39:18;;;;;;;;;;;;;;;14.13;100.00;100757.06;5011633;28;19929;-75
2022/10/16 02:41:44;;;;;;;;;;;;;;;14.17;100.00;100752.25;5008515;28;19929;-75
2022/10/16 02:44:10;;;;;;;;;;;;;;;14.27;100.00;100754.09;5010639;28;19930;-75
2022/10/16 02:46:37;;;;;;;;;;;;;;;14.26;100.00;100758.09;4993663;28;19929;-75
2022/10/16 02:49:03;;;;;;;;;;;;;;;14.32;100.00;100762.78;5002680;28;19934;-74
2022/10/16 02:51:29;;;;;;;;;;;;;;;14.37;100.00;100758.72;5010355;28;19941;-74
2022/10/16 02:53:56;;;;;;;;;;;;;;;14.36;100.00;100752.38;5008722;28;19983;-75
2022/10/16 02:56:22;;;;;;;;;;;;;;;14.38;100.00;100749.94;5007477;28;19933;-75
2022/10/16 02:58:48;;;;;;;;;;;;;;;14.40;100.00;100747.53;5010569;28;19925;-75
2022/10/16 03:01:16;;;;;;;;;;;;;;;14.40;100.00;100755.09;5010090;28;19952;-75
2022/10/16 03:03:43;;;;;;;;;;;;;;;14.35;100.00;100745.22;5004720;28;20441;-76
2022/10/16 03:06:09;;;;;;;;;;;;;;;14.34;100.00;100743.66;5010938;28;19933;-75
2022/10/16 03:08:35;;;;;;;;;;;;;;;14.29;100.00;100758.06;5009695;28;19933;-75
2022/10/16 03:11:02;;;;;;;;;;;;;;;14.32;100.00;100760.00;5008477;28;20298;-75
2022/10/16 03:13:28;;;;;;;;;;;;;;;14.39;100.00;100757.09;4993102;28;19956;-75
2022/10/16 03:15:54;;;;;;;;;;;;;;;14.42;100.00;100755.47;5009424;28;19930;-75
2022/10/16 03:18:21;;;;;;;;;;;;;;;14.44;100.00;100770.53;4993498;28;19945;-75
2022/10/16 03:20:47;;;;;;;;;;;;;;;14.51;100.00;100767.63;5007730;28;19934;-75
2022/10/16 03:23:13;;;;;;;;;;;;;;;14.52;100.00;100765.63;5010357;28;19930;-76
2022/10/16 03:25:40;;;;;;;;;;;;;;;14.53;100.00;100776.34;5008805;28;20398;-75
2022/10/16 03:28:06;;;;;;;;;;;;;;;14.58;100.00;100753.59;5010331;28;19925;-75
2022/10/16 03:30:32;;;;;;;;;;;;;;;14.58;100.00;100756.38;5009408;28;19929;-75
2022/10/16 03:32:59;;;;;;;;;;;;;;;14.64;100.00;100756.66;5010822;28;19980;-75
2022/10/16 03:35:25;;;;;;;;;;;;;;;14.60;100.00;100761.50;4992810;28;19938;-75
2022/10/16 03:37:52;;;;;;;;;;;;;;;14.67;100.00;100756.63;5000831;28;19929;-75
2022/10/16 03:40:19;;;;;;;;;;;;;;;14.65;100.00;100758.25;5006529;28;19929;-75
2022/10/16 03:42:45;;;;;;;;;;;;;;;14.64;100.00;100754.69;5009210;28;20357;-75
2022/10/16 03:45:12;;;;;;;;;;;;;;;14.66;100.00;100754.25;5010370;28;19929;-74
2022/10/16 03:47:38;;;;;;;;;;;;;;;14.71;100.00;100757.34;5005366;28;19930;-75
2022/10/16 03:50:05;;;;;;;;;;;;;;;14.68;100.00;100752.63;5006623;28;19933;-75
2022/10/16 03:52:31;;;;;;;;;;;;;;;14.70;100.00;100749.41;5003618;28;19925;-75
2022/10/16 03:54:58;;;;;;;;;;;;;;;14.74;100.00;100745.34;5002019;28;20008;-75
2022/10/16 03:57:24;;;;;;;;;;;;;;;14.67;100.00;100756.63;5007972;28;19930;-76
2022/10/16 03:59:51;;;;;;;;;;;;;;;14.67;100.00;100767.75;4991505;28;20309;-75
2022/10/16 04:02:17;;;;;;;;;;;;;;;14.66;100.00;100773.75;5008688;28;19952;-74
2022/10/16 04:04:44;;;;;;;;;;;;;;;14.70;100.00;100772.47;5008569;28;19938;-74
2022/10/16 04:07:10;;;;;;;;;;;;;;;14.71;100.00;100779.63;4998140;28;19987;-73
2022/10/16 04:09:36;;;;;;;;;;;;;;;14.70;100.00;100783.63;5010104;28;19930;-75
2022/10/16 04:12:03;;;;;;;;;;;;;;;14.71;100.00;100779.63;5009973;28;20406;-75
2022/10/16 04:14:29;;;;;;;;;;;;;;;14.63;100.00;100778.19;5009902;28;19949;-75
2022/10/16 04:16:55;;;;;;;;;;;;;;;14.66;100.00;100779.31;5007463;28;19937;-75
2022/10/16 04:19:22;;;;;;;;;;;;;;;14.64;100.00;100779.75;5009059;28;19925;-75
2022/10/16 04:21:48;;;;;;;;;;;;;;;14.70;100.00;100789.19;5005778;28;19933;-75
2022/10/16 04:24:14;;;;;;;;;;;;;;;14.67;100.00;100789.25;4991893;28;19949;-75
2022/10/16 04:26:41;;;;;;;;;;;;;;;14.69;100.00;100787.63;5009079;28;19941;-76
2022/10/16 04:29:07;;;;;;;;;;;;;;;14.68;100.00;100794.38;5008839;28;19934;-74
2022/10/16 04:31:33;;;;;;;;;;;;;;;14.73;100.00;100805.06;5008290;28;19929;-75
2022/10/16 04:34:00;;;;;;;;;;;;;;;14.73;100.00;100799.50;5009504;28;20066;-74
2022/10/16 04:36:26;;;;;;;;;;;;;;;14.70;100.00;100803.13;5003753;28;19987;-76
2022/10/16 04:38:54;;;;;;;;;;;;;;;14.73;100.00;100807.84;5009191;28;19987;-75
2022/10/16 04:41:21;;;;;;;;;;;;;;;14.77;100.00;100807.78;4999829;28;19930;-75
2022/10/16 04:43:47;;;;;;;;;;;;;;;14.75;100.00;100810.22;5000531;28;19929;-76
2022/10/16 04:46:13;;;;;;;;;;;;;;;14.74;100.00;100808.63;5008899;28;20285;-75
2022/10/16 04:48:40;;;;;;;;;;;;;;;14.70;100.00;100817.06;5008531;28;20365;-76
2022/10/16 04:51:06;;;;;;;;;;;;;;;14.71;100.00;100826.97;4998808;28;19937;-75
2022/10/16 04:53:33;;;;;;;;;;;;;;;14.68;100.00;100825.03;5009216;28;20345;-75
2022/10/16 04:55:59;;;;;;;;;;;;;;;14.64;100.00;100821.50;4987451;28;19930;-75
2022/10/16 04:58:25;;;;;;;;;;;;;;;14.69;100.00;100828.59;5006493;28;19976;-75
2022/10/16 05:00:52;;;;;;;;;;;;;;;14.68;100.00;100819.47;5008198;28;19929;-75
2022/10/16 05:03:18;;;;;;;;;;;;;;;14.72;100.00;100836.13;5005784;28;19934;-74
2022/10/16 05:05:45;;;;;;;;;;;;;;;14.69;100.00;100823.84;5008774;28;19929;-75
2022/10/16 05:08:13;;;;;;;;;;;;;;;14.64;100.00;100824.31;5009071;28;19995;-75
2022/10/16 05:10:41;;;;;;;;;;;;;;;14.69;100.00;100834.19;5004880;28;19933;-75
2022/10/16 05:13:07;;;;;;;;;;;;;;;14.71;100.00;100840.09;5008636;28;19980;-75
2022/10/16 05:15:34;;;;;;;;;;;;;;;14.67;100.00;100848.53;4991215;28;19930;-75
2022/10/16 05:18:00;;;;;;;;;;;;;;;14.71;100.00;100837.31;5007213;28;19933;-75
2022/10/16 05:20:26;;;;;;;;;;;;;;;14.71;100.00;100843.69;4988718;28;19933;-75
2022/10/16 05:22:53;;;;;;;;;;;;;;;14.73;100.00;100849.63;5007583;28;20023;-74
2022/10/16 05:25:19;;;;;;;;;;;;;;;14.77;100.00;100855.94;5005875;28;19929;-75
2022/10/16 05:27:49;;;;;;;;;;;;;;;14.74;100.00;100853.97;5007955;28;19936;-74
2022/10/16 05:30:16;;;;;;;;;;;;;;;14.75;100.00;100849.22;5007367;28;20046;-75
2022/10/16 05:32:46;;;;;;;;;;;;;;;14.70;100.00;100858.03;5004312;28;19980;-75
2022/10/16 05:35:12;;;;;;;;;;;;;;;14.81;100.00;100865.00;5002853;28;19937;-75
2022/10/16 05:37:38;;;;;;;;;;;;;;;14.80;100.00;100866.22;5008258;28;19987;-76
2022/10/16 05:40:05;;;;;;;;;;;;;;;14.83;100.00;100870.16;5005300;28;19929;-75
2022/10/16 05:42:31;;;;;;;;;;;;;;;14.81;100.00;100862.22;5007972;28;19925;-75
2022/10/16 05:44:58;;;;;;;;;;;;;;;14.84;100.00;100868.94;4992463;28;19934;-75
2022/10/16 05:47:24;;;;;;;;;;;;;;;14.80;100.00;100871.78;5009175;28;19925;-75
2022/10/16 05:49:51;;;;;;;;;;;;;;;14.79;100.00;100875.00;5007571;28;19980;-75
2022/10/16 05:52:17;;;;;;;;;;;;;;;14.83;100.00;100876.53;5012161;28;20831;-75
2022/10/16 05:54:44;;;;;;;;;;;;;;;14.84;100.00;100880.88;5006507;28;19926;-76
2022/10/16 05:57:10;;;;;;;;;;;;;;;14.76;100.00;100886.97;5011461;28;20180;-75
2022/10/16 05:59:36;;;;;;;;;;;;;;;14.84;100.00;100888.44;5009736;28;19942;-75
2022/10/16 06:02:03;;;;;;;;;;;;;;;14.86;100.00;100884.03;5009698;28;19933;-75
2022/10/16 06:04:29;;;;;;;;;;;;;;;14.81;100.00;100892.88;5010602;28;19929;-76
2022/10/16 06:07:00;;;;;;;;;;;;;;;14.82;100.00;100905.56;5012273;28;19925;-75
2022/10/16 06:09:26;;;;;;;;;;;;;;;14.80;100.00;100907.22;5011637;28;19926;-75
2022/10/16 06:11:52;;;;;;;;;;;;;;;14.73;100.00;100913.69;5010752;28;20382;-75
2022/10/16 06:14:19;;;;;;;;;;;;;;;14.81;100.00;100906.78;5005429;28;19929;-75
2022/10/16 06:16:45;;;;;;;;;;;;;;;14.80;100.00;100913.59;5012075;28;19955;-76
2022/10/16 06:19:11;;;;;;;;;;;;;;;14.79;100.00;100914.75;5012659;28;19933;-75
2022/10/16 06:21:38;;;;;;;;;;;;;;;14.79;100.00;100925.13;5000979;28;19929;-75
2022/10/16 06:24:04;;;;;;;;;;;;;;;14.81;100.00;100928.28;4976989;28;19929;-76
2022/10/16 06:26:31;;;;;;;;;;;;;;;14.83;100.00;100923.88;4992663;28;19929;-75
2022/10/16 06:28:58;;;;;;;;;;;;;;;14.89;100.00;100924.97;5010170;28;19933;-75
2022/10/16 06:31:27;;;;;;;;;;;;;;;14.88;100.00;100934.53;5006190;28;19938;-75
2022/10/16 06:33:54;;;;;;;;;;;;;;;14.92;100.00;100931.72;5010938;28;19926;-76
2022/10/16 06:36:20;;;;;;;;;;;;;;;14.99;100.00;100928.81;5010902;28;19933;-76
2022/10/16 06:38:47;;;;;;;;;;;;;;;14.94;100.00;100932.84;5011021;28;19930;-76
2022/10/16 06:41:14;;;;;;;;;;;;;;;15.05;100.00;100933.47;4993423;28;19925;-76
2022/10/16 06:43:41;;;;;;;;;;;;;;;15.00;100.00;100933.97;5010562;28;19936;-76
2022/10/16 06:46:09;;;;;;;;;;;;;;;15.00;100.00;100953.47;4995000;28;19935;-76
2022/10/16 06:48:35;;;;;;;;;;;;;;;15.04;100.00;100956.19;4992058;28;19929;-75
2022/10/16 06:51:04;;;;;;;;;;;;;;;15.10;100.00;100954.50;5010289;28;19937;-75
2022/10/16 06:53:36;;;;;;;;;;;;;;;15.08;100.00;100966.06;5008274;28;19937;-76
2022/10/16 06:56:15;;;;;;;;;;;;;;;15.08;100.00;100970.84;4995857;28;19929;-78
2022/10/16 06:58:42;;;;;;;;;;;;;;;15.14;100.00;100981.13;5003829;28;19925;-76
2022/10/16 07:01:08;;;;;;;;;;;;;;;15.14;100.00;100977.53;5012498;28;19948;-75
2022/10/16 07:03:39;;;;;;;;;;;;;;;15.14;100.00;100977.53;5011439;28;19930;-76
2022/10/16 07:06:06;;;;;;;;;;;;;;;15.18;100.00;100994.97;5003028;28;20550;-74
2022/10/16 07:08:36;;;;;;;;;;;;;;;15.15;100.00;101001.41;4991665;28;19929;-75
2022/10/16 07:11:04;;;;;;;;;;;;;;;15.23;100.00;100998.06;5006858;28;19929;-75
2022/10/16 07:13:33;;;;;;;;;;;;;;;15.09;100.00;101003.88;5009149;28;19929;-75
2022/10/16 07:16:10;;;;;;;;;;;;;;;15.14;100.00;101003.41;5010354;28;19930;-70
2022/10/16 07:18:38;;;;;;;;;;;;;;;15.18;100.00;101020.88;5009227;28;19926;-75
2022/10/16 07:21:10;;;;;;;;;;;;;;;15.15;100.00;101021.69;4992193;28;19937;-75
2022/10/16 07:23:36;;;;;;;;;;;;;;;15.18;100.00;101020.88;5007275;28;19926;-75
2022/10/16 07:26:03;;;;;;;;;;;;;;;15.15;100.00;101030.06;4993078;28;20043;-75
2022/10/16 07:28:30;;;;;;;;;;;;;;;15.23;100.00;101025.94;5007580;28;20394;-75
2022/10/16 07:31:04;;;;;;;;;;;;;;;15.20;100.00;101029.59;5007593;28;19933;-75
2022/10/16 07:33:31;;;;;;;;;;;;;;;15.14;100.00;101039.66;5009793;28;19929;-76
2022/10/16 07:35:58;;;;;;;;;;;;;;;15.22;100.00;101035.53;5008040;28;19952;-75
2022/10/16 07:38:24;;;;;;;;;;;;;;;15.26;100.00;101032.72;5010886;28;19952;-76
2022/10/16 07:40:57;;;;;;;;;;;;;;;15.30;100.00;101039.78;5009336;28;19929;-75
2022/10/16 07:43:24;;;;;;;;;;;;;;;15.36;100.00;101038.13;5009636;28;19930;-75
2022/10/16 07:45:51;;;;;;;;;;;;;;;15.52;100.00;101039.50;5009966;28;20154;-75
2022/10/16 07:48:23;;;;;;;;;;;;;;;15.55;100.00;101049.81;5008366;28;19932;-74
2022/10/16 07:50:49;;;;;;;;;;;;;;;15.60;100.00;101063.28;5006578;28;20309;-75
2022/10/16 07:53:15;;;;;;;;;;;;;;;15.75;100.00;101061.81;5004102;28;20440;-75
2022/10/16 07:55:42;;;;;;;;;;;;;;;15.87;100.00;101070.38;5008636;28;19964;-75
2022/10/16 07:58:08;;;;;;;;;;;;;;;15.91;100.00;101073.91;5003937;28;19984;-75
2022/10/16 08:00:36;;;;;;;;;;;;;;;16.05;100.00;101081.22;5009695;28;19929;-74
2022/10/16 08:03:02;;;;;;;;;;;;;;;16.18;100.00;101085.78;5009872;28;19952;-75
2022/10/16 08:05:30;;;;;;;;;;;;;;;16.31;100.00;101088.72;5009254;28;19929;-75
2022/10/16 08:07:56;;;;;;;;;;;;;;;16.25;100.00;101107.19;5010236;28;19983;-74
2022/10/16 08:10:24;;;;;;;;;;;;;;;16.41;100.00;101096.94;5008115;28;20364;-74
2022/10/16 08:12:50;;;;;;;;;;;;;;;16.46;100.00;101098.44;5009300;28;19940;-74
2022/10/16 08:15:18;;;;;;;;;;;;;;;16.55;100.00;101093.09;5009685;28;19971;-75
2022/10/16 08:17:44;;;;;;;;;;;;;;;16.63;100.00;101106.50;5009679;28;19925;-74
2022/10/16 08:20:11;;;;;;;;;;;;;;;16.70;100.00;101114.72;5009046;28;19933;-75
2022/10/16 08:22:37;;;;;;;;;;;;;;;16.82;100.00;101110.50;4990770;28;19930;-75
2022/10/16 08:25:04;;;;;;;;;;;;;;;16.83;100.00;101112.88;5007175;28;19930;-75
2022/10/16 08:27:31;;;;;;;;;;;;;;;16.93;100.00;101114.66;5007810;28;19929;-75
2022/10/16 08:29:57;;;;;;;;;;;;;;;16.88;100.00;101119.97;5008561;28;19930;-74
2022/10/16 08:32:24;;;;;;;;;;;;;;;16.95;100.00;101123.41;5008612;28;19933;-74
2022/10/16 08:34:53;;;;;;;;;;;;;;;17.00;100.00;101122.91;5003904;28;19937;-74
2022/10/16 08:37:19;;;;;;;;;;;;;;;17.01;100.00;101132.09;5002236;28;19929;-74
2022/10/16 08:39:45;;;;;;;;;;;;;;;17.08;100.00;101132.69;5008719;28;19930;-74
2022/10/16 08:42:30;;;;;;;;;;;;;;;17.27;100.00;101147.88;5005658;28;20360;-75
2022/10/16 08:44:56;;;;;;;;;;;;;;;17.30;100.00;101138.63;5008591;28;19930;-72
2022/10/16 08:47:26;;;;;;;;;;;;;;;17.40;100.00;101160.78;5005074;28;20306;-74
2022/10/16 08:50:08;;;;;;;;;;;;;;;17.32;100.00;101144.59;5004884;28;19941;-74
2022/10/16 08:52:35;;;;;;;;;;;;;;;17.55;100.00;101158.50;5002968;28;19925;-73
2022/10/16 08:55:03;;;;;;;;;;;;;;;17.49;100.00;101172.19;5008043;28;19933;-75
2022/10/16 08:57:31;;;;;;;;;;;;;;;17.74;100.00;101163.22;5003780;28;20401;-75
2022/10/16 09:00:09;;;;;;;;;;;;;;;17.73;100.00;101165.25;5007725;28;19930;-75
2022/10/16 09:02:38;;;;;;;;;;;;;;;17.69;100.00;101170.13;5008668;28;19930;-75
2022/10/16 09:05:18;;;;;;;;;;;;;;;17.82;100.00;101173.81;5008435;28;20310;-76
2022/10/16 09:08:07;;;;;;;;;;;;;;;17.96;100.00;101178.31;5007541;28;19934;-73
2022/10/16 09:11:03;;;;;;;;;;;;;;;17.73;100.00;101181.25;4999162;28;20333;-76
2022/10/16 09:13:36;;;;;;;;;;;;;;;17.93;100.00;101190.38;4977934;28;19929;-76
2022/10/16 09:16:17;;;;;;;;;;;;;;;18.06;100.00;101190.47;4990837;28;20457;-77
2022/10/16 09:18:49;;;;;;;;;;;;;;;18.20;100.00;101192.94;4993076;28;20677;-75
2022/10/16 09:21:28;;;;;;;;;;;;;;;18.21;100.00;101198.09;4997829;28;20699;-76
2022/10/16 09:23:57;;;;;;;;;;;;;;;18.35;100.00;101206.13;4995084;28;20745;-76
2022/10/16 09:26:23;;;;;;;;;;;;;;;18.28;100.00;101200.72;4992366;28;19948;-77
2022/10/16 09:28:51;;;;;;;;;;;;;;;18.33;100.00;101202.22;5000911;28;19937;-74
2022/10/16 09:31:19;;;;;;;;;;;;;;;18.24;100.00;101204.81;4992687;28;19930;-74
2022/10/16 09:33:50;;;;;;;;;;;;;;;18.32;100.00;101200.63;4987279;28;19929;-76
2022/10/16 09:36:16;;;;;;;;;;;;;;;18.60;100.00;101199.94;4967108;28;19937;-76
2022/10/16 09:38:42;;;;;;;;;;;;;;;18.69;100.00;101200.09;4975217;28;19926;-76
2022/10/16 09:41:09;;;;;;;;;;;;;;;18.88;100.00;101202.78;4991617;28;19936;-74
2022/10/16 09:43:46;;;;;;;;;;;;;;;18.83;100.00;101205.31;4993703;28;19932;-76
2022/10/16 09:46:24;;;;;;;;;;;;;;;18.75;100.00;101209.53;4984907;28;20008;-74
2022/10/16 09:48:51;;;;;;;;;;;;;;;18.94;100.00;101197.41;4999401;28;19926;-77
2022/10/16 09:51:26;;;;;;;;;;;;;;;19.00;100.00;101207.63;4991609;28;20708;-74
2022/10/16 09:53:59;;;;;;;;;;;;;;;19.19;100.00;101209.50;4987220;28;19934;-72
2022/10/16 09:56:36;;;;;;;;;;;;;;;19.28;100.00;101201.25;4986792;28;20390;-75
2022/10/16 09:59:08;;;;;;;;;;;;;;;19.61;100.00;101197.03;4987461;28;20013;-76
2022/10/16 10:01:39;;;;;;;;;;;;;;;19.83;100.00;101214.81;4981189;28;19933;-78
2022/10/16 10:04:06;;;;;;;;;;;;;;;19.68;100.00;101212.91;4973768;28;19934;-78
2022/10/16 10:06:33;;;;;;;;;;;;;;;19.69;100.00;101203.22;4985899;28;19925;-78
2022/10/16 10:08:59;;;;;;;;;;;;;;;19.38;100.00;101213.41;4983201;28;19956;-76
2022/10/16 10:11:41;;;;;;;;;;;;;;;19.74;100.00;101200.66;4990329;28;19930;-76
2022/10/16 10:14:16;;;;;;;;;;;;;;;19.93;100.00;101202.47;4977604;28;19929;-76
2022/10/16 10:16:43;;;;;;;;;;;;;;;20.05;100.00;101212.13;4982007;28;19930;-73
2022/10/16 10:19:14;;;;;;;;;;;;;;;20.08;100.00;101205.59;4986944;28;19930;-76
2022/10/16 10:21:40;;;;;;;;;;;;;;;20.16;99.49;101209.78;4983200;28;20787;-75
2022/10/16 10:24:09;;;;;;;;;;;;;;;20.34;100.00;101205.16;4991645;28;20405;-75
2022/10/16 10:26:37;;;;;;;;;;;;;;;20.56;100.00;101210.03;4989432;28;19929;-75
2022/10/16 10:29:15;;;;;;;;;;;;;;;20.64;100.00;101217.78;4990157;28;19936;-74
2022/10/16 10:31:42;;;;;;;;;;;;;;;20.69;95.13;101225.66;4987437;28;20635;-76
2022/10/16 10:34:21;;;;;;;;;;;;;;;20.73;95.17;101228.31;4987986;28;19936;-75
2022/10/16 10:36:53;;;;;;;;;;;;;;;20.92;92.67;101227.25;4989771;28;19930;-74
2022/10/16 10:39:24;;;;;;;;;;;;;;;20.93;91.54;101226.84;4986279;28;19937;-76
2022/10/16 10:42:04;;;;;;;;;;;;;;;21.27;90.60;101220.38;4987132;28;19933;-75
2022/10/16 10:44:36;;;;;;;;;;;;;;;21.22;88.89;101215.31;4989066;28;20600;-75
2022/10/16 10:47:09;;;;;;;;;;;;;;;21.15;87.09;101218.38;4979325;28;19937;-75
2022/10/16 10:49:44;;;;;;;;;;;;;;;21.49;89.03;101227.56;4988127;28;20903;-74
2022/10/16 10:52:34;;;;;;;;;;;;;;;21.12;87.82;101231.34;4991408;28;20003;-75
2022/10/16 10:55:20;;;;;;;;;;;;;;;20.74;88.72;101227.06;4991545;28;19936;-75
2022/10/16 10:57:57;;;;;;;;;;;;;;;20.28;90.65;101234.25;4988264;28;19929;-74
2022/10/16 11:00:35;;;;;;;;;;;;;;;20.51;92.02;101221.88;4985643;28;19941;-76
2022/10/16 11:03:17;;;;;;;;;;;;;;;20.53;91.65;101225.00;4985633;28;20406;-77
2022/10/16 11:05:52;;;;;;;;;;;;;;;20.66;89.12;101220.94;4988595;28;20324;-75
2022/10/16 11:08:18;;;;;;;;;;;;;;;20.82;87.75;101231.22;4989681;28;19930;-74
2022/10/16 11:10:48;;;;;;;;;;;;;;;20.80;86.57;101226.06;4983930;28;19933;-75
2022/10/16 11:13:19;;;;;;;;;;;;;;;20.97;88.14;101227.50;4978862;28;20845;-74
2022/10/16 11:15:48;;;;;;;;;;;;;;;21.11;86.55;101231.81;4986233;28;20353;-75
2022/10/16 11:18:32;;;;;;;;;;;;;;;21.36;84.29;101234.53;4974505;28;19929;-75
2022/10/16 11:21:02;;;;;;;;;;;;;;;21.34;82.26;101226.53;4987987;28;20688;-75
2022/10/16 11:23:33;;;;;;;;;;;;;;;21.56;79.71;101232.16;4969606;28;20424;-73
2022/10/16 11:26:02;;;;;;;;;;;;;;;21.61;78.26;101231.53;4988560;28;19937;-76
2022/10/16 11:28:34;;;;;;;;;;;;;;;21.85;76.62;101233.44;4971045;28;19930;-76
2022/10/16 11:31:14;;;;;;;;;;;;;;;21.94;77.46;101227.06;4978437;28;19956;-76
2022/10/16 11:33:44;;;;;;;;;;;;;;;22.01;75.46;101226.78;4990054;28;19991;-73
2022/10/16 11:36:16;;;;;;;;;;;;;;;22.12;77.44;101239.19;4977577;28;19933;-75
2022/10/16 11:38:45;;;;;;;;;;;;;;;22.57;75.61;101238.53;4984374;28;19933;-75
2022/10/16 11:41:12;;;;;;;;;;;;;;;22.61;70.60;101237.16;4996385;28;19934;-78
2022/10/16 11:43:40;;;;;;;;;;;;;;;22.77;71.99;101240.94;4990883;28;19955;-73
2022/10/16 11:46:13;;;;;;;;;;;;;;;22.86;67.81;101238.91;4985141;28;19933;-75
2022/10/16 11:48:50;;;;;;;;;;;;;;;23.38;67.40;101235.78;4983072;28;19934;-76
2022/10/16 11:51:22;;;;;;;;;;;;;;;23.33;64.32;101232.81;4979571;28;19930;-75
2022/10/16 11:53:53;;;;;;;;;;;;;;;23.42;67.99;101235.63;4979672;28;20487;-75
2022/10/16 11:56:20;;;;;;;;;;;;;;;23.18;64.49;101243.91;4983307;28;20009;-75
2022/10/16 11:58:56;;;;;;;;;;;;;;;23.73;65.78;101231.31;4984489;28;19929;-76
2022/10/16 12:01:42;;;;;;;;;;;;;;;23.83;61.19;101235.66;4984102;28;19934;-75
2022/10/16 12:04:11;;;;;;;;;;;;;;;23.71;58.06;101244.34;4981493;28;19944;-76
2022/10/16 12:06:44;;;;;;;;;;;;;;;23.50;61.19;101246.13;4978424;28;19929;-75
2022/10/16 12:09:15;;;;;;;;;;;;;;;23.33;63.77;101261.84;4981512;28;20689;-76
2022/10/16 12:11:42;;;;;;;;;;;;;;;23.37;60.63;101250.38;4977918;28;19938;-76
2022/10/16 12:14:11;;;;;;;;;;;;;;;22.76;60.74;101242.97;4979850;28;19933;-77
2022/10/16 12:16:54;;;;;;;;;;;;;;;23.17;61.95;101235.91;4971388;28;19936;-77
2022/10/16 12:19:24;;;;;;;;;;;;;;;23.00;63.90;101251.59;4964090;28;19934;-77
2022/10/16 12:21:52;;;;;;;;;;;;;;;23.19;59.80;101267.31;4976439;28;21469;-77
2022/10/16 12:24:27;;;;;;;;;;;;;;;23.01;62.01;101261.66;4980848;28;20699;-77
2022/10/16 12:26:54;;;;;;;;;;;;;;;23.73;59.44;101256.75;4979328;28;19941;-74
2022/10/16 12:29:31;;;;;;;;;;;;;;;24.66;58.05;101255.44;4980536;28;19933;-77
2022/10/16 12:31:57;;;;;;;;;;;;;;;24.73;55.59;101252.25;4976295;28;19933;-73
2022/10/16 12:34:41;;;;;;;;;;;;;;;25.11;55.46;101257.94;4979487;28;20998;-73
2022/10/16 12:37:18;;;;;;;;;;;;;;;25.63;51.21;101252.75;4964106;28;19938;-76
2022/10/16 12:39:45;;;;;;;;;;;;;;;26.30;48.96;101246.94;4982187;28;19940;-76